Бутурлиновка

Карта отелей и гостиниц, располагающихся рядом с аэропортом Бутурлиновка :

Бутурлиновка Воронежская область 50° 47' 30.2388" N, 40° 36' 28.5588" E
Бутурлиновка Воронежская область 50° 47' 30.2388" N, 40° 36' 28.5588" E
Код аэродрома ИКАО
XUOI
Код аэродрома RU
ЬУОИ
Координаты
N50.79173° E040.60793°
Превышение над уровнем моря
162
Основная полоса
11R/29L
Курс магнитный
109,6/289,6
Длина основной ВПП
2534
Ширина основной ВПП
60
Покрытие основной ВПП
Нетвёрдое (грунт)
Освещение ВПП
Нет
Тип: 
Аэродром
Класс аэродрома: 
Принадлежность: 
МО
Статус: 
Действующий
Сайт: 
E-mail аэродрома: 
Страна: 
Россия
Регион: 
Воронежская область
Город: 
Дополнительная информация: 
Оператор: ВВС России. Ранее базировался 899-й гвардейский Оршанский дважды Краснознамённый ордена Суворова 3-й степени штурмовой авиационный полк 105-й смешанной авиадивизии 16-й воздушной армии. Нкр.=(600)м. ДПРС: 797-"УК/ЮП", грузонапряженность ВПП до 190 тонн.

Найти трансфер

С помощью этой формы Вы можете найти трансфер из аэропорта Бутурлиновка в город, аэропорт или вокзал:

Карта места

Javascript is required to view this map.

Погода в аэропортах:

Авиационная погода в аэропорту Новый

Регион: 
Погода METAR: 
UHHH 171830Z 24004MPS 9999 -SHRA FEW034CB 15/12 Q1009 R23R/190050 TEMPO 3100 -TSRA RMK QFE750/1001
Время наблюдения
2021-09-17T18:30:00Z
Температура C
15.0
Точка росы
12.0
Направление ветра
240
Скорость ветра (узлы)
8
Метео видимость
6.21
Явления погоды
-SHRA
Условия полета
VFR
Аэропорт подробнее: 

Авиационная погода в Храброво

Регион: 
Погода METAR: 
UMKK 171830Z 08006MPS 5000 -DZ BR OVC004 11/11 Q1011 R06/19//95 NOSIG RMK QBB120 OBST OBSC QFE757/1009
Время наблюдения
2021-09-17T18:30:00Z
Температура C
11.0
Точка росы
11.0
Направление ветра
80
Скорость ветра (узлы)
12
Метео видимость
3.11
Явления погоды
-DZ BR
Условия полета
LIFR
Аэропорт подробнее: 

Авиационная погода в Челябинске

Регион: 
Погода METAR: 
USCC 171830Z 28003MPS 9999 -SHRA BKN026CB 07/07 Q1007 R27/290050 TEMPO 2000 SHRA RMK QFE735
Время наблюдения
2021-09-17T18:30:00Z
Температура C
7.0
Точка росы
7.0
Направление ветра
280
Скорость ветра (узлы)
6
Метео видимость
6.21
Явления погоды
-SHRA
Условия полета
MVFR
Аэропорт подробнее: 

Авиационная погода в Якутске

Регион: 
Погода METAR: 
UEEE 171830Z 30004MPS 9999 -SHRA SCT009 BKN018CB 07/07 Q0997 R23L/290155 NOSIG RMK QFE739
Время наблюдения
2021-09-17T18:30:00Z
Температура C
7.0
Точка росы
7.0
Направление ветра
300
Скорость ветра (узлы)
8
Метео видимость
6.21
Явления погоды
-SHRA
Условия полета
MVFR
Аэропорт подробнее: